Time;durP1;ratioP1;P1;durP2;ratioP2;P2;SDS_P1;SDS_P2;PMS_P1;PMS_P2;Temp;Humidity;BMP_temperature;BMP_pressure;BME280_temperature;BME280_humidity;BME280_pressure;Samples;Min_cycle;Max_cycle;Signal;HPM_P1;HPM_P2
2023/07/09 00:02:14;;;;;;;11.80;8.63;;;;;;;22.58;79.79;101569.66;5018976;28;20025;-80
2023/07/09 00:04:39;;;;;;;12.35;8.25;;;;;;;22.49;80.73;101568.88;5029128;28;20022;-80
2023/07/09 00:07:05;;;;;;;10.82;8.70;;;;;;;22.49;80.95;101569.72;5020318;28;20491;-80
2023/07/09 00:09:31;;;;;;;10.05;8.07;;;;;;;22.47;81.21;101569.03;5015881;28;20033;-80
2023/07/09 00:11:58;;;;;;;12.07;8.52;;;;;;;22.43;81.56;101573.09;5017065;28;20022;-80
2023/07/09 00:14:23;;;;;;;11.48;8.27;;;;;;;22.41;81.84;101569.72;5021026;28;20126;-80
2023/07/09 00:16:49;;;;;;;12.30;8.63;;;;;;;22.32;82.98;101570.75;5019847;28;20045;-80
2023/07/09 00:19:20;;;;;;;13.38;8.80;;;;;;;22.28;83.03;101577.47;5023247;28;20029;-80
2023/07/09 00:21:49;;;;;;;11.97;8.30;;;;;;;22.31;82.56;101578.97;5018895;28;20033;-80
2023/07/09 00:24:14;;;;;;;11.15;8.50;;;;;;;22.28;82.75;101577.47;5016714;28;20032;-80
2023/07/09 00:26:40;;;;;;;14.32;8.98;;;;;;;22.25;83.15;101583.19;5017528;28;20109;-80
2023/07/09 00:29:10;;;;;;;11.57;8.35;;;;;;;22.22;83.07;101594.25;5020051;28;20503;-80
2023/07/09 00:31:40;;;;;;;12.88;8.27;;;;;;;22.17;83.89;101588.56;5017703;28;20026;-80
2023/07/09 00:34:13;;;;;;;10.52;8.93;;;;;;;22.15;83.73;101594.09;5019907;28;20532;-80
2023/07/09 00:36:40;;;;;;;13.15;9.18;;;;;;;22.10;84.21;101587.59;5018796;28;20038;-80
2023/07/09 00:39:15;;;;;;;12.30;7.90;;;;;;;22.12;84.03;101590.94;5020219;28;20026;-80
2023/07/09 00:41:41;;;;;;;12.95;9.30;;;;;;;22.05;84.86;101595.31;5018638;28;20497;-80
2023/07/09 00:44:28;;;;;;;12.85;8.52;;;;;;;22.05;84.19;101597.97;5018342;28;20032;-80
2023/07/09 00:47:03;;;;;;;11.18;8.80;;;;;;;22.00;84.77;101598.44;5014944;28;20030;-80
2023/07/09 00:49:46;;;;;;;10.85;8.68;;;;;;;21.93;85.51;101601.97;5018303;28;20036;-80
2023/07/09 00:52:29;;;;;;;16.50;9.82;;;;;;;21.93;85.03;101604.66;5015896;28;20022;-80
2023/07/09 00:54:56;;;;;;;10.90;9.25;;;;;;;21.86;86.16;101602.66;5014120;28;20028;-80
2023/07/09 00:57:26;;;;;;;10.48;8.32;;;;;;;21.85;85.72;101600.97;5020180;28;20041;-80
2023/07/09 00:59:57;;;;;;;13.98;9.73;;;;;;;21.79;86.34;101600.81;5016273;28;20025;-80
2023/07/09 01:02:23;;;;;;;15.50;9.73;;;;;;;21.80;86.12;101597.97;5015405;28;20375;-80
2023/07/09 01:04:55;;;;;;;13.02;9.43;;;;;;;21.78;86.33;101594.63;5016880;28;20101;-80
2023/07/09 01:07:21;;;;;;;14.70;9.73;;;;;;;21.75;87.05;101599.47;5018817;28;20037;-80
2023/07/09 01:09:47;;;;;;;14.68;9.23;;;;;;;21.72;87.55;101600.66;5020829;28;20156;-80
2023/07/09 01:12:19;;;;;;;13.85;9.85;;;;;;;21.67;87.69;101603.00;5017856;28;20052;-80
2023/07/09 01:14:48;;;;;;;11.90;9.40;;;;;;;21.67;87.53;101591.44;5020005;28;20030;-80
2023/07/09 01:17:14;;;;;;;11.02;9.25;;;;;;;21.65;88.04;101591.63;5014671;28;20029;-80
2023/07/09 01:19:43;;;;;;;20.73;10.10;;;;;;;21.57;88.54;101586.22;5016459;28;20053;-80
2023/07/09 01:22:15;;;;;;;12.50;9.63;;;;;;;21.58;88.57;101593.25;5017600;28;20430;-80
2023/07/09 01:25:01;;;;;;;14.07;10.30;;;;;;;21.61;87.34;101592.94;5019610;28;20025;-80
2023/07/09 01:27:39;;;;;;;13.15;9.50;;;;;;;21.54;88.34;101587.41;5021237;28;20052;-80
2023/07/09 01:30:14;;;;;;;13.18;9.57;;;;;;;21.52;88.46;101593.94;5028203;28;20057;-80
2023/07/09 01:32:45;;;;;;;15.07;9.63;;;;;;;21.46;89.48;101594.59;5055283;28;20542;-80
2023/07/09 01:35:11;;;;;;;12.75;9.48;;;;;;;21.45;89.50;101595.59;5022372;28;20433;-81
2023/07/09 01:37:37;;;;;;;15.98;10.45;;;;;;;21.44;89.49;101599.28;5023577;28;20052;-80
2023/07/09 01:40:05;;;;;;;13.50;9.88;;;;;;;21.36;90.01;101599.28;5022047;28;20025;-80
2023/07/09 01:42:32;;;;;;;15.27;10.48;;;;;;;21.37;90.49;101599.13;5020223;28;20448;-80
2023/07/09 01:44:57;;;;;;;12.15;9.50;;;;;;;21.34;90.29;101593.25;5021424;28;20050;-80
2023/07/09 01:47:24;;;;;;;16.02;10.02;;;;;;;21.29;91.04;101608.97;5037362;28;20045;-80
2023/07/09 01:49:50;;;;;;;15.32;10.80;;;;;;;21.26;91.37;101599.44;5052345;28;20021;-79
2023/07/09 01:52:19;;;;;;;15.75;10.98;;;;;;;21.26;90.99;101605.63;5019186;28;20033;-80
2023/07/09 01:54:49;;;;;;;15.02;10.75;;;;;;;21.29;90.57;101603.63;5040528;28;20029;-80
2023/07/09 01:57:22;;;;;;;14.30;10.85;;;;;;;21.29;91.35;101609.81;5050382;28;20023;-80
2023/07/09 01:59:49;;;;;;;14.63;11.35;;;;;;;21.26;91.37;101616.34;5030363;28;20029;-80
2023/07/09 02:02:18;;;;;;;14.10;10.52;;;;;;;21.27;91.43;101614.50;5032266;28;20028;-80
2023/07/09 02:04:47;;;;;;;15.88;10.38;;;;;;;21.27;91.20;101618.03;5031265;28;20033;-80
2023/07/09 02:07:13;;;;;;;15.50;11.05;;;;;;;21.25;90.86;101608.47;5028632;28;20056;-80
2023/07/09 02:09:38;;;;;;;12.00;10.65;;;;;;;21.24;91.44;101613.00;5012694;28;20022;-80
2023/07/09 02:12:04;;;;;;;13.63;10.55;;;;;;;21.27;91.54;101620.69;5012081;28;20549;-80
2023/07/09 02:14:29;;;;;;;13.68;10.20;;;;;;;21.27;91.70;101612.66;5022919;28;20112;-80
2023/07/09 02:16:55;;;;;;;11.20;9.90;;;;;;;21.21;92.12;101618.66;5022210;28;20489;-80
2023/07/09 02:19:20;;;;;;;13.52;10.23;;;;;;;21.26;91.75;101621.69;5029938;28;20033;-80
2023/07/09 02:21:46;;;;;;;12.63;10.43;;;;;;;21.22;92.87;101614.97;5032589;28;20026;-80
2023/07/09 02:24:11;;;;;;;12.63;10.15;;;;;;;21.25;92.75;101616.50;5017904;28;20033;-79
2023/07/09 02:26:36;;;;;;;11.77;10.10;;;;;;;21.22;92.75;101609.63;5010923;28;20045;-79
2023/07/09 02:29:02;;;;;;;13.68;10.35;;;;;;;21.20;92.45;101610.75;5017676;28;20374;-80
2023/07/09 02:31:29;;;;;;;13.38;10.63;;;;;;;21.14;93.21;101606.91;5059103;28;20116;-81
2023/07/09 02:33:56;;;;;;;16.02;10.40;;;;;;;21.16;93.62;101610.25;5029694;28;20452;-80
2023/07/09 02:36:21;;;;;;;14.57;9.77;;;;;;;21.15;93.02;101611.25;5024232;28;20026;-80
2023/07/09 02:38:46;;;;;;;10.85;9.70;;;;;;;21.14;92.87;101614.94;5011576;28;20076;-79
2023/07/09 02:41:12;;;;;;;13.32;10.50;;;;;;;21.08;93.35;101612.91;5024679;28;20026;-79
2023/07/09 02:43:37;;;;;;;11.80;10.43;;;;;;;21.03;94.35;101609.88;5027247;28;20108;-79
2023/07/09 02:46:03;;;;;;;12.52;9.68;;;;;;;21.07;93.48;101615.75;5029162;28;20038;-79
2023/07/09 02:48:28;;;;;;;12.32;10.23;;;;;;;21.06;93.24;101614.91;5063030;28;20088;-79
2023/07/09 02:50:54;;;;;;;11.45;10.25;;;;;;;20.98;93.89;101612.22;5029430;28;20029;-79
2023/07/09 02:53:20;;;;;;;13.60;10.23;;;;;;;21.00;93.75;101614.72;5022556;28;20041;-79
2023/07/09 02:55:45;;;;;;;12.90;10.00;;;;;;;20.97;94.06;101615.88;5043705;28;20017;-79
2023/07/09 02:58:10;;;;;;;11.80;10.23;;;;;;;20.95;94.04;101617.91;5012468;28;20057;-80
2023/07/09 03:00:36;;;;;;;14.70;10.40;;;;;;;20.91;94.36;101617.38;5025720;28;20028;-79
2023/07/09 03:03:02;;;;;;;17.10;10.05;;;;;;;20.89;94.75;101613.19;5011164;28;20042;-79
2023/07/09 03:05:27;;;;;;;13.48;10.75;;;;;;;20.89;94.67;101613.19;5019628;28;20951;-79
2023/07/09 03:07:52;;;;;;;12.80;10.15;;;;;;;20.89;94.70;101613.19;5010649;28;20041;-82
2023/07/09 03:10:18;;;;;;;14.63;10.38;;;;;;;20.85;95.21;101611.84;5014386;28;20017;-81
2023/07/09 03:12:43;;;;;;;11.35;10.15;;;;;;;20.83;95.00;101613.84;5028888;28;20040;-80
2023/07/09 03:15:09;;;;;;;13.77;10.85;;;;;;;20.82;95.17;101613.00;5029927;28;20045;-80
2023/07/09 03:17:34;;;;;;;12.73;10.50;;;;;;;20.80;95.47;101614.97;5019876;28;20029;-81
2023/07/09 03:20:00;;;;;;;13.90;9.85;;;;;;;20.78;95.49;101610.78;5014197;28;20065;-81
2023/07/09 03:22:25;;;;;;;17.58;10.98;;;;;;;20.73;96.28;101613.13;5021370;28;20036;-81
2023/07/09 03:24:50;;;;;;;13.50;10.90;;;;;;;20.74;95.70;101612.13;5028371;28;20029;-81
2023/07/09 03:27:16;;;;;;;13.95;10.95;;;;;;;20.74;95.76;101615.63;5024111;28;20033;-81
2023/07/09 03:29:44;;;;;;;15.52;11.35;;;;;;;20.69;96.65;101611.75;5031039;28;20057;-81
2023/07/09 03:32:09;;;;;;;12.48;10.55;;;;;;;20.70;96.16;101613.44;5027801;28;20738;-81
2023/07/09 03:34:35;;;;;;;12.93;10.55;;;;;;;20.69;95.89;101614.44;5016224;28;20025;-81
2023/07/09 03:37:00;;;;;;;12.55;10.48;;;;;;;20.68;96.11;101610.94;5025170;28;20032;-81
2023/07/09 03:39:25;;;;;;;13.38;10.68;;;;;;;20.67;96.18;101608.41;5030860;28;20032;-81
2023/07/09 03:41:51;;;;;;;13.85;10.65;;;;;;;20.62;96.61;101612.41;5031002;28;20168;-81
2023/07/09 03:44:16;;;;;;;15.73;11.20;;;;;;;20.57;97.25;101609.38;5019086;28;20131;-80
2023/07/09 03:46:41;;;;;;;13.43;10.82;;;;;;;20.54;97.50;101609.69;5030131;28;20122;-81
2023/07/09 03:49:10;;;;;;;12.95;10.50;;;;;;;20.56;97.11;101605.03;5012480;28;20037;-81
2023/07/09 03:51:35;;;;;;;13.77;11.18;;;;;;;20.53;97.84;101604.50;5013744;28;20104;-81
2023/07/09 03:54:01;;;;;;;12.40;11.10;;;;;;;20.51;98.58;101610.03;5025069;28;20975;-81
2023/07/09 03:56:26;;;;;;;13.27;11.60;;;;;;;20.54;97.93;101609.69;5027882;28;20056;-81
2023/07/09 03:58:51;;;;;;;13.05;11.10;;;;;;;20.48;98.71;101610.34;5029390;28;20025;-81
2023/07/09 04:01:17;;;;;;;12.27;10.52;;;;;;;20.51;98.46;101610.03;5029544;28;20639;-81
2023/07/09 04:03:42;;;;;;;11.98;9.98;;;;;;;20.55;97.88;101615.88;5028731;28;20025;-80
2023/07/09 04:06:08;;;;;;;15.40;11.77;;;;;;;20.51;98.47;101604.69;5029018;28;20022;-81
2023/07/09 04:08:33;;;;;;;13.77;10.25;;;;;;;20.58;97.69;101611.06;5029704;28;20124;-81
2023/07/09 04:11:01;;;;;;;12.85;11.13;;;;;;;20.73;97.51;101608.59;5028937;28;20029;-80
2023/07/09 04:13:27;;;;;;;14.35;11.38;;;;;;;20.86;97.60;101608.16;5016772;28;20029;-81
2023/07/09 04:15:53;;;;;;;14.57;11.93;;;;;;;21.18;95.75;101612.75;5019561;28;20029;-81
2023/07/09 04:18:18;;;;;;;14.65;11.10;;;;;;;21.48;93.81;101603.31;5017893;28;20014;-81
2023/07/09 04:20:48;;;;;;;13.80;10.63;;;;;;;21.66;92.47;101622.75;5019682;28;20589;-80
2023/07/09 04:23:14;;;;;;;13.98;10.60;;;;;;;21.81;91.74;101615.72;5015635;28;20079;-81
2023/07/09 04:25:39;;;;;;;14.63;11.48;;;;;;;21.78;91.34;101620.56;5021615;28;20025;-81
2023/07/09 04:28:05;;;;;;;13.98;11.35;;;;;;;21.72;91.49;101619.41;5022882;28;20075;-80
2023/07/09 04:30:31;;;;;;;13.73;10.98;;;;;;;21.66;92.34;101617.41;5014164;28;20156;-80
2023/07/09 04:32:57;;;;;;;13.05;11.27;;;;;;;21.52;92.87;101616.19;5013325;28;20440;-81
2023/07/09 04:35:23;;;;;;;15.63;12.35;;;;;;;21.45;93.87;101609.00;5013669;28;20025;-80
2023/07/09 04:37:49;;;;;;;13.55;12.07;;;;;;;21.47;94.47;101612.34;5012618;28;20018;-81
2023/07/09 04:40:15;;;;;;;13.63;11.30;;;;;;;21.48;94.58;101606.00;5030886;28;20029;-80
2023/07/09 04:42:40;;;;;;;16.50;12.80;;;;;;;21.43;95.02;101605.66;5015053;28;20034;-80
2023/07/09 04:45:08;;;;;;;15.43;13.13;;;;;;;21.39;95.39;101612.34;5019883;28;20517;-80
2023/07/09 04:47:34;;;;;;;14.43;12.90;;;;;;;21.46;94.24;101605.31;5023712;28;20048;-80
2023/07/09 04:49:59;;;;;;;16.80;13.68;;;;;;;21.46;94.40;101608.00;5018220;28;20021;-80
2023/07/09 04:52:25;;;;;;;18.85;13.60;;;;;;;21.49;93.28;101610.34;5026965;28;20028;-80
2023/07/09 04:54:50;;;;;;;16.60;13.05;;;;;;;21.53;93.05;101606.31;5027512;28;20033;-80
2023/07/09 04:57:16;;;;;;;16.00;13.05;;;;;;;21.58;92.79;101606.66;5020423;28;20117;-80
2023/07/09 04:59:41;;;;;;;17.92;13.48;;;;;;;21.63;92.14;101617.72;5016977;28;20057;-80
2023/07/09 05:02:10;;;;;;;16.73;13.13;;;;;;;21.67;92.36;101607.53;5015217;28;20043;-80
2023/07/09 05:04:36;;;;;;;13.52;11.77;;;;;;;21.77;92.14;101619.72;5025290;28;20021;-79
2023/07/09 05:07:01;;;;;;;16.83;12.32;;;;;;;21.79;91.90;101607.00;5019645;28;20438;-79
2023/07/09 05:09:26;;;;;;;13.13;11.20;;;;;;;21.86;92.70;101610.69;5016459;28;20780;-80
2023/07/09 05:11:52;;;;;;;14.27;11.40;;;;;;;21.93;91.48;101607.31;5017702;28;20032;-79
2023/07/09 05:14:18;;;;;;;13.55;10.95;;;;;;;21.97;90.00;101614.00;5019203;28;20056;-79
2023/07/09 05:16:45;;;;;;;16.27;11.35;;;;;;;22.06;89.91;101607.69;5021543;28;20422;-79
2023/07/09 05:19:11;;;;;;;14.90;10.75;;;;;;;22.12;89.58;101607.84;5013288;28;20026;-81
2023/07/09 05:21:36;;;;;;;12.50;10.45;;;;;;;22.17;90.44;101610.00;5017119;28;20441;-80
2023/07/09 05:24:01;;;;;;;14.80;10.60;;;;;;;22.24;89.11;101611.00;5017829;28;20034;-80
2023/07/09 05:26:27;;;;;;;14.90;10.18;;;;;;;22.38;87.44;101607.59;5017420;28;20364;-80
2023/07/09 05:28:52;;;;;;;18.60;10.65;;;;;;;22.50;85.74;101606.25;5025436;28;20104;-80
2023/07/09 05:31:18;;;;;;;13.60;10.27;;;;;;;22.64;84.82;101607.34;5019049;28;20092;-80
2023/07/09 05:33:44;;;;;;;14.05;10.05;;;;;;;22.77;83.45;101612.16;5014584;28;20440;-80
2023/07/09 05:36:15;;;;;;;13.95;9.90;;;;;;;22.83;84.22;101603.47;5012679;28;20033;-81
2023/07/09 05:38:45;;;;;;;13.90;10.63;;;;;;;22.98;82.22;101609.75;5017166;28;20022;-80
2023/07/09 05:41:11;;;;;;;13.60;10.75;;;;;;;23.10;80.76;101608.34;5020946;28;20021;-80
2023/07/09 05:43:36;;;;;;;14.70;10.88;;;;;;;23.20;81.14;101608.09;5016673;28;20445;-80
2023/07/09 05:46:03;;;;;;;13.68;10.07;;;;;;;23.28;81.39;101605.38;5030835;28;20065;-81
2023/07/09 05:48:28;;;;;;;19.63;9.80;;;;;;;23.33;81.25;101607.53;5022577;28;20072;-80
2023/07/09 05:50:57;;;;;;;14.68;10.35;;;;;;;23.41;81.36;101608.31;5013920;28;20021;-81
2023/07/09 05:53:23;;;;;;;14.75;10.75;;;;;;;23.57;78.88;101610.06;5015319;28;20021;-81
2023/07/09 05:55:49;;;;;;;14.93;10.45;;;;;;;23.60;80.00;101609.69;5025665;28;20109;-81
2023/07/09 05:58:14;;;;;;;16.77;10.30;;;;;;;23.74;78.26;101621.53;5015027;28;20022;-80
2023/07/09 06:00:41;;;;;;;14.30;9.40;;;;;;;23.82;79.01;101617.94;5017249;28;20068;-79
2023/07/09 06:03:07;;;;;;;11.98;9.30;;;;;;;23.92;79.09;101613.13;5024499;28;20025;-80
2023/07/09 06:05:34;;;;;;;15.80;9.80;;;;;;;23.94;78.06;101617.31;5016318;28;20033;-80
2023/07/09 06:07:59;;;;;;;12.30;9.50;;;;;;;23.98;77.87;101623.16;5016950;28;20026;-79
2023/07/09 06:10:24;;;;;;;13.45;9.27;;;;;;;24.13;77.71;101615.97;5013170;28;20081;-80
2023/07/09 06:12:50;;;;;;;17.25;9.15;;;;;;;24.12;77.21;101616.97;5020035;28;20022;-80
2023/07/09 06:15:15;;;;;;;14.27;8.98;;;;;;;24.25;76.61;101614.47;5016252;28;20112;-80
2023/07/09 06:17:41;;;;;;;14.05;9.32;;;;;;;24.31;76.99;101621.84;5020025;28;20044;-80
2023/07/09 06:20:09;;;;;;;13.07;8.88;;;;;;;24.45;75.36;101622.06;5020997;28;20034;-80
2023/07/09 06:22:34;;;;;;;15.25;9.13;;;;;;;24.57;74.80;101621.41;5020459;28;20816;-80
2023/07/09 06:25:00;;;;;;;11.25;8.52;;;;;;;24.69;74.44;101616.38;5018514;28;20093;-80
2023/07/09 06:27:25;;;;;;;11.07;9.10;;;;;;;24.81;73.53;101619.41;5020273;28;20049;-79
2023/07/09 06:29:51;;;;;;;13.70;9.43;;;;;;;24.83;73.52;101626.31;5027395;28;20425;-79
2023/07/09 06:32:16;;;;;;;11.55;8.77;;;;;;;24.98;73.35;101615.53;5014458;28;20080;-79
2023/07/09 06:34:45;;;;;;;12.88;8.80;;;;;;;25.08;72.00;101623.28;5020455;28;20022;-79
2023/07/09 06:37:10;;;;;;;12.50;8.60;;;;;;;25.18;71.53;101610.34;5025603;28;20124;-79
2023/07/09 06:39:35;;;;;;;14.18;8.85;;;;;;;25.25;71.16;101616.66;5023630;28;20017;-80
2023/07/09 06:42:01;;;;;;;12.98;8.35;;;;;;;25.36;69.86;101621.53;5017788;28;20029;-79
2023/07/09 06:44:26;;;;;;;13.02;8.88;;;;;;;25.44;68.56;101610.63;5010837;28;20092;-79
2023/07/09 06:46:52;;;;;;;11.23;7.88;;;;;;;25.46;71.04;101613.13;5024104;28;20036;-80
2023/07/09 06:49:17;;;;;;;14.85;8.32;;;;;;;25.59;70.28;101616.78;5015307;28;20405;-79
2023/07/09 06:51:42;;;;;;;12.88;8.30;;;;;;;25.71;69.09;101616.31;5018971;28;20061;-79
2023/07/09 06:54:08;;;;;;;13.30;8.55;;;;;;;25.81;67.66;101620.34;5022741;28;20029;-80
2023/07/09 06:56:34;;;;;;;15.18;8.05;;;;;;;25.85;69.11;101623.47;5022201;28;20053;-79
2023/07/09 06:59:00;;;;;;;11.15;7.68;;;;;;;25.99;68.54;101619.00;5017498;28;20033;-79
2023/07/09 07:01:25;;;;;;;13.05;7.57;;;;;;;26.04;70.69;101632.78;5023609;28;20108;-79
2023/07/09 07:03:50;;;;;;;13.57;8.20;;;;;;;26.13;67.76;101616.25;5017040;28;20049;-78
2023/07/09 07:06:16;;;;;;;15.60;8.60;;;;;;;26.30;66.13;101624.84;5024316;28;20083;-79
2023/07/09 07:08:42;;;;;;;14.05;8.40;;;;;;;26.47;65.08;101628.13;5033927;28;20025;-79
2023/07/09 07:11:10;;;;;;;14.63;8.65;;;;;;;26.56;66.12;101626.91;5015649;28;22426;-79
2023/07/09 07:13:37;;;;;;;14.27;8.68;;;;;;;26.82;63.71;101626.22;5017961;28;20021;-80
2023/07/09 07:16:05;;;;;;;14.82;9.30;;;;;;;27.06;62.14;101627.56;5021436;28;20025;-80
2023/07/09 07:18:30;;;;;;;14.57;7.45;;;;;;;27.11;59.87;101636.72;5018901;28;20026;-79
2023/07/09 07:20:56;;;;;;;10.18;7.45;;;;;;;27.52;58.96;101629.53;5020718;28;20501;-79
2023/07/09 07:23:21;;;;;;;13.38;7.13;;;;;;;27.80;57.71;101630.22;5015375;28;20022;-79
2023/07/09 07:25:47;;;;;;;9.23;6.80;;;;;;;28.03;56.35;101630.66;5018516;28;20026;-78
2023/07/09 07:28:13;;;;;;;8.30;6.45;;;;;;;28.29;55.66;101634.38;5029119;28;20025;-79
2023/07/09 07:30:38;;;;;;;7.97;6.50;;;;;;;28.47;54.94;101642.69;5025844;28;20025;-79
2023/07/09 07:33:08;;;;;;;9.57;5.97;;;;;;;28.60;53.54;101629.09;5030411;28;20063;-79
2023/07/09 07:35:33;;;;;;;11.52;6.53;;;;;;;28.58;53.31;101633.91;5019582;28;20527;-79
2023/07/09 07:37:59;;;;;;;11.65;6.80;;;;;;;28.80;53.38;101633.59;5030386;28;20026;-79
2023/07/09 07:40:24;;;;;;;9.75;6.15;;;;;;;29.07;53.86;101624.34;5030899;28;20025;-79
2023/07/09 07:42:50;;;;;;;12.60;6.25;;;;;;;29.38;52.59;101623.53;5027405;28;20469;-79
2023/07/09 07:45:16;;;;;;;9.70;6.40;;;;;;;29.59;52.12;101620.47;5025862;28;20124;-80
2023/07/09 07:47:44;;;;;;;10.13;6.93;;;;;;;29.75;50.86;101623.72;5028741;28;20036;-79
2023/07/09 07:50:10;;;;;;;9.30;6.15;;;;;;;30.05;48.97;101618.50;5025138;28;20042;-80
2023/07/09 07:52:37;;;;;;;9.63;6.07;;;;;;;30.10;50.29;101622.19;5022939;28;20036;-80
2023/07/09 07:55:10;;;;;;;9.45;6.57;;;;;;;30.31;47.62;101620.91;5023097;28;20120;-79
2023/07/09 07:57:35;;;;;;;11.50;6.57;;;;;;;30.44;47.15;101623.50;5029201;28;20025;-81
2023/07/09 08:00:10;;;;;;;11.75;6.35;;;;;;;30.51;47.43;101621.53;5029358;28;20838;-80
2023/07/09 08:02:36;;;;;;;8.63;6.38;;;;;;;30.65;46.83;101615.97;5028416;28;20032;-79
2023/07/09 08:05:01;;;;;;;7.30;6.45;;;;;;;30.66;47.45;101609.47;5028088;28;20518;-79
2023/07/09 08:07:26;;;;;;;9.70;6.40;;;;;;;30.78;47.90;101613.09;5029021;28;20358;-80
2023/07/09 08:09:52;;;;;;;10.75;6.20;;;;;;;31.07;46.67;101609.56;5032874;28;20090;-79
2023/07/09 08:12:17;;;;;;;9.68;6.70;;;;;;;31.45;46.25;101613.84;5026411;28;20067;-79
2023/07/09 08:14:46;;;;;;;7.35;6.30;;;;;;;31.57;45.33;101609.25;5028555;28;20025;-79
2023/07/09 08:17:14;;;;;;;12.85;6.93;;;;;;;31.66;44.63;101616.03;5025815;28;20041;-81
2023/07/09 08:19:51;;;;;;;8.18;6.43;;;;;;;31.73;46.11;101611.34;5028996;28;20045;-80
2023/07/09 08:22:16;;;;;;;10.13;6.32;;;;;;;31.96;44.31;101607.78;5024675;28;20045;-80
2023/07/09 08:24:42;;;;;;;10.85;6.30;;;;;;;32.01;43.65;101612.50;5054278;28;20547;-79
2023/07/09 08:27:09;;;;;;;12.60;6.85;;;;;;;32.13;42.14;101615.25;5034063;28;20465;-80
2023/07/09 08:29:35;;;;;;;8.55;6.32;;;;;;;32.08;44.11;101607.81;5038120;28;20079;-80
2023/07/09 08:32:02;;;;;;;12.20;6.85;;;;;;;32.31;42.18;101606.97;5034710;28;20378;-79
2023/07/09 08:34:28;;;;;;;10.35;6.97;;;;;;;32.49;42.81;101606.00;5036974;28;20033;-80
2023/07/09 08:36:53;;;;;;;12.00;6.38;;;;;;;32.60;42.49;101599.69;5050213;28;20167;-79
2023/07/09 08:39:19;;;;;;;9.63;6.80;;;;;;;32.53;42.22;101594.38;5037828;28;20536;-80
2023/07/09 08:42:02;;;;;;;10.35;6.28;;;;;;;32.66;44.76;101609.63;5033285;28;20496;-79
2023/07/09 08:45:02;;;;;;;7.85;5.93;;;;;;;32.90;44.26;101597.59;5035752;28;20492;-79
2023/07/09 08:48:01;;;;;;;8.25;6.40;;;;;;;33.33;43.13;101601.69;5035722;28;20511;-80
2023/07/09 08:50:38;;;;;;;9.13;6.20;;;;;;;33.37;42.35;101605.56;5040977;28;20036;-80
2023/07/09 08:53:08;;;;;;;9.13;6.65;;;;;;;33.48;40.89;101607.41;5037576;28;20031;-80
2023/07/09 08:55:40;;;;;;;10.13;6.78;;;;;;;33.53;39.74;101604.75;5031462;28;20478;-79
2023/07/09 08:58:19;;;;;;;9.75;6.35;;;;;;;33.61;42.51;101607.06;5033941;28;20026;-79
2023/07/09 09:00:45;;;;;;;12.07;6.38;;;;;;;34.02;41.56;101599.53;5034761;28;20049;-80
2023/07/09 09:03:40;;;;;;;8.50;5.72;;;;;;;34.39;41.01;101590.78;5029036;28;20114;-80
2023/07/09 09:06:14;;;;;;;10.00;6.28;;;;;;;34.04;38.98;101589.19;5027117;28;20025;-80
2023/07/09 09:09:02;;;;;;;8.32;5.63;;;;;;;34.16;40.72;101594.56;5029433;28;20040;-79
2023/07/09 09:11:44;;;;;;;9.25;6.25;;;;;;;34.22;39.94;101590.81;5027919;28;20591;-79
2023/07/09 09:14:32;;;;;;;11.35;6.25;;;;;;;34.32;39.77;101590.09;5027635;28;20565;-79
2023/07/09 09:16:57;;;;;;;10.32;6.57;;;;;;;34.17;38.18;101588.84;5029870;28;20100;-80
2023/07/09 09:19:37;;;;;;;10.13;6.43;;;;;;;34.39;38.10;101586.13;5030949;28;20117;-80
2023/07/09 09:22:16;;;;;;;9.20;5.78;;;;;;;34.51;38.63;101588.75;5039290;28;20031;-79
2023/07/09 09:24:58;;;;;;;6.75;6.00;;;;;;;34.66;38.48;101586.19;5032398;28;20079;-80
2023/07/09 09:27:23;;;;;;;8.57;6.30;;;;;;;34.53;37.15;101576.47;5047128;28;20043;-80
2023/07/09 09:29:51;;;;;;;7.18;5.80;;;;;;;34.72;38.28;101574.22;5035817;28;20029;-79
2023/07/09 09:32:26;;;;;;;8.60;5.90;;;;;;;34.84;37.34;101571.41;5033162;28;20028;-79
2023/07/09 09:34:52;;;;;;;8.45;5.85;;;;;;;35.01;38.21;101571.28;5026963;28;20037;-79
2023/07/09 09:37:31;;;;;;;8.98;5.97;;;;;;;35.26;38.60;101568.78;5032223;28;20029;-79
2023/07/09 09:39:59;;;;;;;7.72;5.60;;;;;;;35.12;36.43;101557.44;5027100;28;20075;-79
2023/07/09 09:42:26;;;;;;;9.13;6.03;;;;;;;34.82;36.83;101555.22;5027158;28;20029;-79
2023/07/09 09:44:55;;;;;;;7.45;5.32;;;;;;;34.72;37.77;101557.00;5025921;28;20079;-79
2023/07/09 09:47:25;;;;;;;12.50;5.82;;;;;;;34.63;36.96;101556.63;5026825;28;20152;-79
2023/07/09 09:49:52;;;;;;;10.93;6.25;;;;;;;34.56;37.43;101556.84;5024618;28;20041;-79
2023/07/09 09:52:27;;;;;;;8.00;5.28;;;;;;;34.83;36.92;101551.44;5032425;28;20033;-79
2023/07/09 09:54:55;;;;;;;8.57;5.00;;;;;;;34.90;36.38;101539.44;5031376;28;20156;-79
2023/07/09 09:57:24;;;;;;;7.65;5.00;;;;;;;34.99;36.50;101538.72;5032473;28;20061;-79
2023/07/09 09:59:50;;;;;;;7.75;5.32;;;;;;;35.07;35.78;101537.41;5032050;28;20104;-79
2023/07/09 10:02:21;;;;;;;6.93;5.05;;;;;;;35.05;37.28;101539.59;5031323;28;20545;-80
2023/07/09 10:04:47;;;;;;;7.30;5.25;;;;;;;35.08;34.89;101541.78;5029290;28;20036;-79
2023/07/09 10:07:36;;;;;;;9.25;5.18;;;;;;;35.28;37.25;101550.19;5030190;28;20030;-79
2023/07/09 10:10:12;;;;;;;8.15;5.00;;;;;;;35.44;35.59;101543.78;5031468;28;20033;-79
2023/07/09 10:12:54;;;;;;;8.73;4.68;;;;;;;35.56;36.87;101545.50;5032338;28;20108;-79
2023/07/09 10:15:42;;;;;;;5.32;4.47;;;;;;;35.67;35.93;101544.50;5032445;28;20029;-79
2023/07/09 10:18:30;;;;;;;10.18;4.60;;;;;;;35.57;35.73;101553.44;5061056;28;20083;-79
2023/07/09 10:21:17;;;;;;;7.75;4.82;;;;;;;35.79;36.74;101567.03;5031911;28;20052;-79
2023/07/09 10:24:09;;;;;;;7.32;4.53;;;;;;;35.88;36.12;101570.13;5024906;28;20041;-79
2023/07/09 10:26:47;;;;;;;6.78;5.05;;;;;;;36.14;34.96;101573.84;5022377;28;20030;-80
2023/07/09 10:29:15;;;;;;;8.15;5.20;;;;;;;35.78;34.47;101573.59;5031881;28;20565;-80
2023/07/09 10:31:46;;;;;;;7.88;5.00;;;;;;;35.63;35.47;101573.50;5031851;28;20053;-79
2023/07/09 10:34:20;;;;;;;9.33;4.60;;;;;;;35.80;35.91;101582.38;5032033;28;20033;-80
2023/07/09 10:37:19;;;;;;;9.00;4.78;;;;;;;35.98;36.02;101575.66;5031360;28;20094;-80
2023/07/09 10:39:51;;;;;;;8.90;4.65;;;;;;;36.10;34.93;101579.84;5011043;28;20021;-79
2023/07/09 10:42:48;;;;;;;10.50;4.75;;;;;;;36.47;36.00;101573.47;5012520;28;20029;-79
2023/07/09 10:45:20;;;;;;;6.22;4.72;;;;;;;36.48;34.18;101572.38;5023326;28;20456;-79
2023/07/09 10:47:55;;;;;;;6.88;4.82;;;;;;;36.50;35.43;101575.66;5031337;28;20120;-81
2023/07/09 10:50:31;;;;;;;7.13;4.80;;;;;;;36.55;34.50;101563.91;5031339;28;20033;-80
2023/07/09 10:53:05;;;;;;;8.07;5.03;;;;;;;36.40;34.62;101556.41;5038596;28;20112;-80
2023/07/09 10:55:47;;;;;;;7.45;4.47;;;;;;;36.52;35.34;101551.53;5045141;28;20071;-79
2023/07/09 10:58:35;;;;;;;11.70;4.65;;;;;;;36.66;35.01;101538.97;5025770;28;20021;-79
2023/07/09 11:01:00;;;;;;;6.32;4.72;;;;;;;36.53;34.65;101547.72;5027617;28;20032;-79
2023/07/09 11:03:44;;;;;;;9.38;4.80;;;;;;;36.52;34.59;101553.47;5031371;28;20026;-79
2023/07/09 11:06:17;;;;;;;6.95;4.63;;;;;;;36.24;34.49;101547.28;5034332;28;20064;-79
2023/07/09 11:08:45;;;;;;;8.35;4.22;;;;;;;36.14;34.37;101554.66;5048956;28;20112;-79
2023/07/09 11:11:21;;;;;;;7.93;4.97;;;;;;;36.10;35.89;101557.09;5033801;28;20087;-79
2023/07/09 11:13:54;;;;;;;17.35;5.55;;;;;;;35.97;35.79;101563.88;5027165;28;20137;-80
2023/07/09 11:16:38;;;;;;;7.63;4.93;;;;;;;36.07;36.90;101566.69;5028346;28;20100;-80
2023/07/09 11:19:06;;;;;;;9.57;4.88;;;;;;;36.16;35.35;101569.72;5031320;28;20036;-80
2023/07/09 11:21:32;;;;;;;7.15;4.82;;;;;;;36.17;35.78;101573.31;5031436;28;20034;-79
2023/07/09 11:24:29;;;;;;;8.40;4.78;;;;;;;36.12;37.45;101571.38;5032388;28;20036;-79
2023/07/09 11:26:55;;;;;;;7.03;4.90;;;;;;;36.10;36.54;101574.38;5022503;28;20082;-80